Terminal Aerodrome Forecast
Issued by NWS

Current Version | Previous Version | Text Only | Print | Product List | Glossary On
Versions: 1 2 3 4 5 6 7 8 9 10 11 12 13 14 15 16 17 18 19 20 21 22 23
000
FTUS44 KHGX 181725
TAFLBX
TAF
KLBX 181725Z 1818/1918 18013KT P6SM VCSH BKN015 OVC023
      TEMPO 1818/1822 3SM TSRA BR SCT005 OVC015CB
     FM190400 24005KT 6SM BR OVC007
     FM190900 32006KT 4SM SHRA BR VCTS BKN007 OVC015CB
     FM191500 27005KT P6SM VCSH SCT007 BKN015=

USA.gov is the U.S. government's official web portal to all federal, state and local government web resources and services.